Time;durP1;ratioP1;P1;durP2;ratioP2;P2;SDS_P1;SDS_P2;PMS_P1;PMS_P2;Temp;Humidity;BMP_temperature;BMP_pressure;BME280_temperature;BME280_humidity;BME280_pressure;Samples;Min_cycle;Max_cycle;Signal;HPM_P1;HPM_P2
2023/03/27 00:00:56;;;;;;;8.25;3.33;;;;;;;2.59;100.00;101464.84;5026710;28;20041;-87
2023/03/27 00:03:24;;;;;;;9.75;2.47;;;;;;;2.60;100.00;101466.66;5020501;28;20110;-87
2023/03/27 00:06:05;;;;;;;9.18;2.70;;;;;;;2.62;100.00;101471.13;5021657;28;20033;-87
2023/03/27 00:08:32;;;;;;;7.75;2.60;;;;;;;2.61;100.00;101477.13;5020566;28;20061;-87
2023/03/27 00:10:59;;;;;;;5.50;2.30;;;;;;;2.62;100.00;101480.59;5025114;28;20021;-87
2023/03/27 00:13:25;;;;;;;11.18;2.75;;;;;;;2.62;100.00;101480.59;5028802;28;20537;-87
2023/03/27 00:15:53;;;;;;;5.95;2.55;;;;;;;2.60;100.00;101482.25;5017995;28;20055;-86
2023/03/27 00:18:18;;;;;;;8.70;2.83;;;;;;;2.56;100.00;101483.78;5020751;28;20026;-86
2023/03/27 00:20:44;;;;;;;11.48;2.75;;;;;;;2.52;100.00;101494.84;5022922;28;20102;-87
2023/03/27 00:23:10;;;;;;;6.28;2.38;;;;;;;2.49;100.00;101500.78;5023389;28;20035;-87
2023/03/27 00:25:35;;;;;;;9.38;2.85;;;;;;;2.46;100.00;101513.63;5026012;28;20034;-86
2023/03/27 00:28:01;;;;;;;6.32;2.50;;;;;;;2.43;100.00;101508.25;5024500;28;20036;-87
2023/03/27 00:30:29;;;;;;;7.90;2.55;;;;;;;2.42;100.00;101514.28;5029486;28;20553;-86
2023/03/27 00:32:56;;;;;;;7.50;2.45;;;;;;;2.41;100.00;101512.50;5019035;28;20018;-87
2023/03/27 00:35:23;;;;;;;6.75;2.53;;;;;;;2.41;100.00;101515.09;5029716;28;20026;-86
2023/03/27 00:37:48;;;;;;;8.48;2.55;;;;;;;2.43;100.00;101520.38;5027919;28;20564;-86
2023/03/27 00:40:16;;;;;;;5.65;2.13;;;;;;;2.45;100.00;101516.16;5019919;28;20057;-86
2023/03/27 00:42:43;;;;;;;8.52;2.20;;;;;;;2.44;100.00;101520.44;5026680;28;20053;-86
2023/03/27 00:45:15;;;;;;;6.90;2.70;;;;;;;2.44;100.00;101522.16;5020361;28;20076;-85
2023/03/27 00:47:41;;;;;;;10.43;2.58;;;;;;;2.40;100.00;101528.88;5029676;28;20198;-86
2023/03/27 00:50:11;;;;;;;7.28;3.22;;;;;;;2.40;100.00;101528.88;5030716;28;20025;-87
2023/03/27 00:52:41;;;;;;;6.25;2.38;;;;;;;2.42;100.00;101528.97;5028318;28;20598;-87
2023/03/27 00:55:13;;;;;;;6.22;2.35;;;;;;;2.45;100.00;101534.34;5021106;28;20024;-87
2023/03/27 00:57:39;;;;;;;7.90;2.40;;;;;;;2.49;100.00;101546.69;5023872;28;20122;-87
2023/03/27 01:00:13;;;;;;;6.53;2.30;;;;;;;2.55;100.00;101559.13;5022782;28;20069;-87
2023/03/27 01:02:45;;;;;;;8.68;2.50;;;;;;;2.58;100.00;101555.00;5029964;28;20459;-87
2023/03/27 01:05:11;;;;;;;6.65;2.28;;;;;;;2.60;100.00;101558.56;5029133;28;20029;-86
2023/03/27 01:07:38;;;;;;;6.88;2.47;;;;;;;2.64;100.00;101555.31;5023965;28;20030;-87
2023/03/27 01:10:06;;;;;;;5.72;2.30;;;;;;;2.66;100.00;101563.22;5026066;28;20065;-86
2023/03/27 01:12:59;;;;;;;6.70;2.88;;;;;;;2.72;100.00;101573.03;5023113;28;20032;-87
2023/03/27 01:15:51;;;;;;;6.05;2.20;;;;;;;2.74;100.00;101567.09;5027016;28;20442;-88
2023/03/27 01:18:31;;;;;;;5.38;2.38;;;;;;;2.76;100.00;101564.59;5020282;28;20037;-86
2023/03/27 01:21:17;;;;;;;4.47;2.22;;;;;;;2.76;100.00;101559.38;5023593;28;20482;-88
2023/03/27 01:24:05;;;;;;;6.55;2.53;;;;;;;2.76;100.00;101557.66;5024430;28;20021;-86
2023/03/27 01:26:57;;;;;;;5.03;2.05;;;;;;;2.75;100.00;101557.59;5021382;28;20044;-86
2023/03/27 01:29:35;;;;;;;6.93;2.00;;;;;;;2.75;100.00;101562.78;5023534;28;20475;-86
2023/03/27 01:32:43;;;;;;;6.05;2.05;;;;;;;2.78;100.00;101574.25;5013310;28;20026;-86
2023/03/27 01:35:30;;;;;;;4.70;2.17;;;;;;;2.74;100.00;101574.91;5012794;28;20388;-86
2023/03/27 01:38:35;;;;;;;4.75;2.28;;;;;;;2.75;100.00;101579.31;5020140;28;20048;-87
2023/03/27 01:41:17;;;;;;;5.75;2.10;;;;;;;2.73;100.00;101586.13;5022490;28;20413;-87
2023/03/27 01:43:49;;;;;;;8.05;2.63;;;;;;;2.70;100.00;101585.97;5016356;28;20025;-86
2023/03/27 01:46:24;;;;;;;4.00;2.13;;;;;;;2.67;100.00;101585.78;5022274;28;20495;-86
2023/03/27 01:49:12;;;;;;;7.20;2.83;;;;;;;2.66;100.00;101591.81;5023639;28;20030;-86
2023/03/27 01:51:43;;;;;;;7.22;3.40;;;;;;;2.62;100.00;101595.03;5025380;28;20124;-86
2023/03/27 01:54:17;;;;;;;7.15;2.78;;;;;;;2.61;100.00;101596.75;5024522;28;20032;-87
2023/03/27 01:56:56;;;;;;;6.93;2.70;;;;;;;2.61;100.00;101596.75;5017485;28;20385;-87
2023/03/27 01:59:26;;;;;;;5.63;2.95;;;;;;;2.58;100.00;101591.41;5022313;28;20013;-86
2023/03/27 02:02:01;;;;;;;9.63;3.00;;;;;;;2.58;100.00;101599.22;5028638;28;20033;-86
2023/03/27 02:04:36;;;;;;;6.95;2.58;;;;;;;2.56;100.00;101602.53;5019595;28;20112;-86
2023/03/27 02:07:06;;;;;;;7.22;2.72;;;;;;;2.53;100.00;101600.66;5017299;28;20033;-86
2023/03/27 02:09:40;;;;;;;6.53;2.97;;;;;;;2.50;100.00;101604.00;5016732;28;20029;-87
2023/03/27 02:12:10;;;;;;;9.48;3.10;;;;;;;2.47;100.00;101613.31;5022237;28;20033;-86
2023/03/27 02:14:52;;;;;;;7.80;2.97;;;;;;;2.44;100.00;101618.38;5011033;28;20038;-86
2023/03/27 02:17:20;;;;;;;4.50;2.40;;;;;;;2.39;100.00;101620.69;5021938;28;20546;-86
2023/03/27 02:19:51;;;;;;;7.05;3.22;;;;;;;2.35;100.00;101626.53;5022499;28;20471;-86
2023/03/27 02:22:17;;;;;;;15.15;3.72;;;;;;;2.32;100.00;101631.56;5017328;28;20017;-86
2023/03/27 02:24:42;;;;;;;7.20;2.67;;;;;;;2.29;100.00;101637.50;5021634;28;20033;-87
2023/03/27 02:27:18;;;;;;;15.23;3.58;;;;;;;2.25;100.00;101643.34;5022872;28;20029;-86
2023/03/27 02:29:58;;;;;;;7.75;2.70;;;;;;;2.18;100.00;101638.59;5022796;28;20037;-86
2023/03/27 02:32:44;;;;;;;5.20;2.50;;;;;;;2.15;100.00;101638.41;5024602;28;20497;-86
2023/03/27 02:35:27;;;;;;;6.05;2.85;;;;;;;2.09;100.00;101644.19;5013422;28;20029;-85
2023/03/27 02:38:08;;;;;;;5.18;2.58;;;;;;;2.03;100.00;101636.03;5015958;28;20022;-86
2023/03/27 02:40:49;;;;;;;5.78;3.08;;;;;;;1.99;100.00;101641.84;5012174;28;20052;-86
2023/03/27 02:43:21;;;;;;;8.20;3.20;;;;;;;1.93;100.00;101644.09;5018883;28;20033;-86
2023/03/27 02:45:53;;;;;;;9.10;2.97;;;;;;;1.89;100.00;101642.13;5016487;28;20029;-87
2023/03/27 02:48:18;;;;;;;8.18;2.92;;;;;;;1.87;100.00;101649.84;5022332;28;20017;-86
2023/03/27 02:50:55;;;;;;;7.00;2.97;;;;;;;1.86;100.00;101661.03;5024296;28;20091;-86
2023/03/27 02:53:24;;;;;;;8.95;3.03;;;;;;;1.82;100.00;101659.94;5011771;28;20426;-86
2023/03/27 02:55:53;;;;;;;7.45;3.03;;;;;;;1.81;100.00;101658.19;5026757;28;20509;-84
2023/03/27 02:58:29;;;;;;;7.35;2.70;;;;;;;1.81;100.00;101665.97;5025630;28;20022;-85
2023/03/27 03:00:58;;;;;;;5.30;2.78;;;;;;;1.82;100.00;101664.25;5022216;28;20117;-85
2023/03/27 03:03:36;;;;;;;10.18;3.22;;;;;;;1.83;100.00;101661.75;5017036;28;20022;-85
2023/03/27 03:06:05;;;;;;;9.57;3.35;;;;;;;1.83;100.00;101660.84;5013613;28;20037;-85
2023/03/27 03:08:36;;;;;;;7.18;2.85;;;;;;;1.85;100.00;101669.63;5015362;28;20410;-85
2023/03/27 03:11:02;;;;;;;;;;;;;;;1.93;100.00;101678.78;5011996;28;20022;-85
2023/03/27 03:13:27;;;;;;;7.95;3.05;;;;;;;1.88;100.00;101676.69;5020446;28;19935;-85
2023/03/27 03:15:53;;;;;;;5.18;2.80;;;;;;;1.87;100.00;101695.72;5026505;28;20372;-85
2023/03/27 03:18:19;;;;;;;8.80;3.22;;;;;;;1.82;100.00;101692.81;5026248;28;20025;-85
2023/03/27 03:20:44;;;;;;;9.70;2.95;;;;;;;1.79;100.00;101698.75;5024696;28;20036;-84
2023/03/27 03:23:10;;;;;;;9.15;2.88;;;;;;;1.74;100.00;101694.97;5018828;28;20040;-85
2023/03/27 03:25:35;;;;;;;7.85;2.90;;;;;;;1.70;100.00;101703.38;5009453;28;20030;-85
2023/03/27 03:28:00;;;;;;;12.32;3.22;;;;;;;1.70;100.00;101706.00;5013897;28;20025;-85
2023/03/27 03:30:27;;;;;;;9.80;2.92;;;;;;;1.67;100.00;101709.28;5018891;28;20041;-85
2023/03/27 03:32:54;;;;;;;6.07;3.10;;;;;;;1.63;100.00;101715.13;5012527;28;20021;-84
2023/03/27 03:35:23;;;;;;;11.48;3.30;;;;;;;1.60;100.00;101720.13;5025285;28;20811;-85
2023/03/27 03:37:50;;;;;;;10.75;3.13;;;;;;;1.58;100.00;101724.31;5025908;28;20044;-85
2023/03/27 03:40:17;;;;;;;9.48;3.10;;;;;;;1.58;100.00;101729.53;5019446;28;20391;-85
2023/03/27 03:42:46;;;;;;;7.18;2.85;;;;;;;1.57;100.00;101732.03;5016148;28;20030;-85
2023/03/27 03:45:12;;;;;;;9.23;3.13;;;;;;;1.58;100.00;101733.81;5020955;28;20548;-85
2023/03/27 03:47:37;;;;;;;7.75;3.33;;;;;;;1.62;100.00;101735.81;5020058;28;20022;-85
2023/03/27 03:50:02;;;;;;;5.35;3.10;;;;;;;1.60;100.00;101743.50;5014871;28;20018;-85
2023/03/27 03:52:28;;;;;;;6.05;2.80;;;;;;;1.61;100.00;101734.88;5015632;28;20029;-85
2023/03/27 03:54:53;;;;;;;7.38;2.83;;;;;;;1.61;100.00;101741.78;5009954;28;20052;-86
2023/03/27 03:57:18;;;;;;;6.53;2.90;;;;;;;1.61;100.00;101747.88;5020839;28;20750;-85
2023/03/27 03:59:44;;;;;;;8.55;4.20;;;;;;;1.61;100.00;101753.06;5018156;28;20076;-85
2023/03/27 04:02:10;;;;;;;6.47;2.95;;;;;;;1.63;100.00;101755.78;5013295;28;20036;-85
2023/03/27 04:04:36;;;;;;;7.18;2.92;;;;;;;1.60;100.00;101755.56;5020624;28;20076;-85
2023/03/27 04:07:01;;;;;;;10.52;2.85;;;;;;;1.60;100.00;101766.88;5024889;28;20067;-85
2023/03/27 04:09:27;;;;;;;10.07;3.20;;;;;;;1.60;100.00;101759.09;5022892;28;20029;-85
2023/03/27 04:11:52;;;;;;;7.00;2.72;;;;;;;1.60;100.00;101769.47;5015803;28;20045;-85
2023/03/27 04:14:17;;;;;;;8.98;3.15;;;;;;;1.59;100.00;101767.69;5022701;28;20423;-85
2023/03/27 04:16:42;;;;;;;5.13;2.47;;;;;;;1.58;100.00;101778.84;5015514;28;20029;-85
2023/03/27 04:19:08;;;;;;;6.18;2.70;;;;;;;1.56;100.00;101775.28;5025784;28;20397;-85
2023/03/27 04:21:33;;;;;;;6.72;2.75;;;;;;;1.56;100.00;101783.06;5018114;28;20091;-85
2023/03/27 04:24:01;;;;;;;6.43;2.78;;;;;;;1.54;100.00;101787.25;5026131;28;20078;-85
2023/03/27 04:26:27;;;;;;;5.68;2.60;;;;;;;1.51;100.00;101789.69;5026191;28;20029;-85
2023/03/27 04:28:53;;;;;;;8.60;3.17;;;;;;;1.46;100.00;101791.97;5016582;28;20017;-85
2023/03/27 04:31:18;;;;;;;6.45;2.92;;;;;;;1.44;100.00;101793.59;5014374;28;20152;-85
2023/03/27 04:33:45;;;;;;;5.95;2.95;;;;;;;1.42;100.00;101807.28;5026749;28;20076;-85
2023/03/27 04:36:13;;;;;;;8.30;3.22;;;;;;;1.39;100.00;101805.41;5026520;28;20521;-85
2023/03/27 04:38:39;;;;;;;5.72;2.90;;;;;;;1.38;100.00;101813.97;5025409;28;20048;-85
2023/03/27 04:41:05;;;;;;;7.93;3.25;;;;;;;1.35;100.00;101816.38;5020659;28;20065;-85
2023/03/27 04:43:35;;;;;;;5.68;3.03;;;;;;;1.35;100.00;101824.19;5028263;28;20105;-85
2023/03/27 04:46:01;;;;;;;6.57;2.90;;;;;;;1.36;100.00;101825.94;5018256;28;20055;-85
2023/03/27 04:48:26;;;;;;;7.65;3.38;;;;;;;1.37;100.00;101825.16;5029278;28;20017;-85
2023/03/27 04:50:51;;;;;;;7.97;3.08;;;;;;;1.39;100.00;101828.75;5012824;28;20022;-85
2023/03/27 04:53:19;;;;;;;6.43;3.33;;;;;;;1.38;100.00;101826.06;5017755;28;20104;-86
2023/03/27 04:55:45;;;;;;;8.27;3.22;;;;;;;1.41;100.00;101828.84;5025073;28;20025;-85
2023/03/27 04:58:11;;;;;;;7.93;3.17;;;;;;;1.42;100.00;101830.66;5016366;28;20033;-86
2023/03/27 05:00:37;;;;;;;8.52;3.92;;;;;;;1.42;100.00;101835.84;5019567;28;20376;-85
2023/03/27 05:03:02;;;;;;;6.35;2.75;;;;;;;1.42;100.00;101836.72;5023403;28;20453;-86
2023/03/27 05:05:28;;;;;;;5.07;2.85;;;;;;;1.42;100.00;101844.50;5019201;28;20054;-85
2023/03/27 05:07:54;;;;;;;5.90;3.30;;;;;;;1.42;100.00;101848.81;5014141;28;20120;-85
2023/03/27 05:10:19;;;;;;;7.13;3.55;;;;;;;1.41;100.00;101855.69;5023374;28;20029;-86
2023/03/27 05:12:51;;;;;;;6.72;3.15;;;;;;;1.40;100.00;101850.41;5024558;28;20404;-85
2023/03/27 05:15:17;;;;;;;8.80;2.78;;;;;;;1.38;100.00;101858.09;5020713;28;20106;-85
2023/03/27 05:17:44;;;;;;;4.13;2.88;;;;;;;1.36;100.00;101858.81;5026639;28;20021;-85
2023/03/27 05:20:13;;;;;;;8.02;2.97;;;;;;;1.35;100.00;101867.38;5024411;28;20025;-85
2023/03/27 05:22:40;;;;;;;7.80;3.47;;;;;;;1.33;100.00;101868.19;5021237;28;20029;-85
2023/03/27 05:25:07;;;;;;;5.68;2.80;;;;;;;1.33;100.00;101875.97;5027206;28;20021;-86
2023/03/27 05:27:32;;;;;;;6.35;2.95;;;;;;;1.35;100.00;101876.09;5025809;28;20040;-86
2023/03/27 05:29:58;;;;;;;7.72;3.25;;;;;;;1.37;100.00;101881.38;5023825;28;20014;-84
2023/03/27 05:32:23;;;;;;;6.05;2.80;;;;;;;1.38;100.00;101878.88;5023320;28;20052;-84
2023/03/27 05:34:49;;;;;;;7.90;3.15;;;;;;;1.40;100.00;101878.97;5029520;28;20501;-85
2023/03/27 05:37:16;;;;;;;8.50;3.10;;;;;;;1.42;100.00;101879.97;5027781;28;20033;-86
2023/03/27 05:39:45;;;;;;;9.70;3.65;;;;;;;1.43;100.00;101882.66;5028479;28;20056;-84
2023/03/27 05:42:10;;;;;;;9.23;3.72;;;;;;;1.49;100.00;101888.22;5025237;28;20068;-85
2023/03/27 05:44:35;;;;;;;8.85;3.63;;;;;;;1.55;100.00;101903.31;5028541;28;20112;-85
2023/03/27 05:47:01;;;;;;;9.65;4.00;;;;;;;1.61;100.00;101901.09;5025323;28;20449;-85
2023/03/27 05:49:27;;;;;;;7.75;2.97;;;;;;;1.69;100.00;101901.56;5026228;28;20033;-86
2023/03/27 05:51:52;;;;;;;7.57;3.20;;;;;;;1.74;100.00;101909.66;5027145;28;20433;-86
2023/03/27 05:54:17;;;;;;;6.82;3.00;;;;;;;1.81;100.00;101907.56;5021168;28;20025;-86
2023/03/27 05:56:43;;;;;;;6.65;3.13;;;;;;;1.90;100.00;101917.59;5023237;28;20052;-86
2023/03/27 05:59:08;;;;;;;7.85;3.45;;;;;;;1.98;100.00;101931.97;5023197;28;20124;-85
2023/03/27 06:01:38;;;;;;;10.52;3.35;;;;;;;2.03;100.00;101942.66;5021307;28;20021;-86
2023/03/27 06:04:04;;;;;;;8.38;3.50;;;;;;;2.04;100.00;101960.03;5021642;28;20453;-86
2023/03/27 06:06:29;;;;;;;6.32;2.80;;;;;;;2.01;100.00;101962.44;5020782;28;20131;-86
2023/03/27 06:08:57;;;;;;;9.50;2.83;;;;;;;1.97;100.00;101947.44;5015551;28;20157;-86
2023/03/27 06:11:23;;;;;;;14.82;3.05;;;;;;;1.93;100.00;101943.78;5020701;28;20036;-86
2023/03/27 06:13:49;;;;;;;6.25;2.25;;;;;;;1.88;100.00;101933.88;5023541;28;20029;-85
2023/03/27 06:16:15;;;;;;;4.65;2.20;;;;;;;1.83;100.00;101934.50;5017577;28;20060;-86
2023/03/27 06:18:41;;;;;;;3.47;2.17;;;;;;;1.80;100.00;101936.91;5012839;28;20037;-85
2023/03/27 06:21:06;;;;;;;4.65;2.17;;;;;;;1.82;100.00;101939.59;5014274;28;20030;-85
2023/03/27 06:23:32;;;;;;;4.55;2.28;;;;;;;1.82;100.00;101943.09;5014220;28;20328;-85
2023/03/27 06:25:58;;;;;;;5.30;2.40;;;;;;;1.83;100.00;101939.69;5020766;28;20613;-86
2023/03/27 06:28:23;;;;;;;5.13;2.33;;;;;;;1.87;100.00;101943.41;5020283;28;20022;-86
2023/03/27 06:30:49;;;;;;;6.10;2.33;;;;;;;1.90;100.00;101953.09;5019778;28;20032;-86
2023/03/27 06:33:14;;;;;;;3.33;2.30;;;;;;;1.92;100.00;101948.88;5018089;28;20522;-85
2023/03/27 06:35:40;;;;;;;3.50;1.95;;;;;;;1.93;100.00;101956.78;5023504;28;20170;-86
2023/03/27 06:38:06;;;;;;;4.95;2.30;;;;;;;1.95;100.00;101962.94;5024671;28;20549;-86
2023/03/27 06:40:34;;;;;;;3.88;2.03;;;;;;;2.12;100.00;101955.31;5017513;28;20117;-86
2023/03/27 06:43:02;;;;;;;5.85;2.30;;;;;;;2.92;100.00;101960.09;5017153;28;20030;-85
2023/03/27 06:45:31;;;;;;;6.85;2.55;;;;;;;4.24;100.00;101965.69;5023006;28;20125;-86
2023/03/27 06:47:59;;;;;;;3.30;2.10;;;;;;;5.47;100.00;101965.84;5023048;28;20082;-85
2023/03/27 06:50:26;;;;;;;6.10;2.10;;;;;;;6.91;97.76;101975.00;5020757;28;20025;-86
2023/03/27 06:52:51;;;;;;;4.38;2.50;;;;;;;8.27;88.84;101971.59;5020118;28;20447;-87
2023/03/27 06:55:19;;;;;;;6.95;2.58;;;;;;;9.19;82.83;101975.75;5019812;28;20033;-86
2023/03/27 06:57:47;;;;;;;4.35;2.20;;;;;;;9.72;79.26;101978.34;5017591;28;20056;-86
2023/03/27 07:00:18;;;;;;;2.95;2.10;;;;;;;9.99;77.25;101979.19;5018865;28;20029;-85
2023/03/27 07:02:52;;;;;;;8.40;2.30;;;;;;;10.26;77.80;101991.38;5028305;28;20029;-85
2023/03/27 07:05:18;;;;;;;3.28;1.70;;;;;;;10.15;75.79;101990.19;5023494;28;20036;-86
2023/03/27 07:07:43;;;;;;;4.35;1.95;;;;;;;9.97;77.49;101991.38;5021310;28;20029;-85
2023/03/27 07:10:09;;;;;;;7.93;2.78;;;;;;;9.74;78.34;101998.59;5020273;28;20021;-86
2023/03/27 07:12:35;;;;;;;3.85;2.00;;;;;;;9.31;80.18;101999.81;5021387;28;20412;-87
2023/03/27 07:15:01;;;;;;;7.55;2.40;;;;;;;8.93;78.77;102000.31;5009748;28;20029;-85
2023/03/27 07:17:26;;;;;;;6.00;2.40;;;;;;;8.67;79.48;102002.00;5016337;28;20121;-85
2023/03/27 07:19:52;;;;;;;5.22;2.20;;;;;;;8.44;82.70;102002.03;5021483;28;20033;-86
2023/03/27 07:22:17;;;;;;;6.82;2.30;;;;;;;8.33;85.48;102000.72;5017251;28;20033;-86
2023/03/27 07:24:42;;;;;;;6.90;2.35;;;;;;;8.33;84.67;102005.97;5012268;28;20025;-86
2023/03/27 07:27:08;;;;;;;5.07;2.42;;;;;;;8.13;83.33;102016.59;5020624;28;20195;-86
2023/03/27 07:29:35;;;;;;;7.22;2.45;;;;;;;7.72;83.92;102015.88;5017193;28;20073;-86
2023/03/27 07:32:01;;;;;;;8.13;2.35;;;;;;;7.26;81.66;102014.91;5017107;28;20033;-86
2023/03/27 07:34:27;;;;;;;5.13;2.53;;;;;;;6.71;83.67;102018.66;5019289;28;20079;-87
2023/03/27 07:36:52;;;;;;;6.03;2.70;;;;;;;6.54;89.88;102020.50;5015621;28;20025;-87
2023/03/27 07:39:17;;;;;;;10.27;2.70;;;;;;;6.53;93.64;102023.94;5022193;28;20501;-87
2023/03/27 07:41:43;;;;;;;5.82;2.72;;;;;;;6.63;91.83;102022.66;5017654;28;20037;-87
2023/03/27 07:44:08;;;;;;;4.68;2.55;;;;;;;6.67;92.10;102035.94;5024469;28;20367;-87
2023/03/27 07:46:33;;;;;;;7.88;2.88;;;;;;;6.79;94.28;102034.72;5024186;28;20040;-87
2023/03/27 07:48:59;;;;;;;7.30;3.10;;;;;;;6.94;89.92;102029.25;5023909;28;20033;-88
2023/03/27 07:51:24;;;;;;;4.97;2.47;;;;;;;6.93;89.52;102027.44;5024232;28;20304;-88
2023/03/27 07:53:55;;;;;;;4.13;2.45;;;;;;;6.97;89.10;102025.03;5016467;28;20028;-87
2023/03/27 07:56:22;;;;;;;8.63;3.03;;;;;;;6.89;86.32;102036.00;5023672;28;20033;-87
2023/03/27 07:58:47;;;;;;;9.52;3.10;;;;;;;6.80;86.24;102029.53;5012568;28;20030;-87
2023/03/27 08:01:13;;;;;;;6.32;3.78;;;;;;;6.81;86.37;102035.66;5019468;28;20034;-88
2023/03/27 08:03:40;;;;;;;11.50;3.17;;;;;;;6.80;87.67;102036.47;5019531;28;20099;-87
2023/03/27 08:06:06;;;;;;;6.55;2.55;;;;;;;6.80;85.16;102049.56;5021490;28;20389;-86
2023/03/27 08:08:32;;;;;;;4.53;2.60;;;;;;;6.78;85.69;102043.38;5025149;28;20025;-86
2023/03/27 08:11:01;;;;;;;7.35;3.13;;;;;;;6.69;82.48;102048.22;5021719;28;20025;-87
2023/03/27 08:13:27;;;;;;;9.50;2.67;;;;;;;6.73;86.90;102045.78;5030415;28;20032;-87
2023/03/27 08:16:07;;;;;;;7.63;2.30;;;;;;;6.59;81.52;102053.03;5024096;28;20021;-87
2023/03/27 08:18:33;;;;;;;4.30;1.98;;;;;;;6.49;85.63;102058.66;5026694;28;20025;-87
2023/03/27 08:21:01;;;;;;;6.95;2.30;;;;;;;6.50;84.85;102050.00;5026321;28;20037;-87
2023/03/27 08:23:26;;;;;;;8.52;2.58;;;;;;;6.45;84.42;102054.13;5029526;28;20033;-87
2023/03/27 08:25:59;;;;;;;7.93;2.38;;;;;;;6.51;85.66;102057.03;5021431;28;20533;-87
2023/03/27 08:28:28;;;;;;;6.10;2.20;;;;;;;6.43;82.82;102064.53;5029313;28;20037;-88
2023/03/27 08:30:54;;;;;;;6.72;2.33;;;;;;;6.43;83.52;102072.38;5029055;28;20051;-87
2023/03/27 08:33:21;;;;;;;7.45;2.60;;;;;;;6.41;81.10;102078.38;5015266;28;20025;-88
2023/03/27 08:35:48;;;;;;;2.35;1.70;;;;;;;6.37;82.07;102076.44;5027244;28;20206;-88
2023/03/27 08:38:14;;;;;;;5.68;1.50;;;;;;;6.31;80.74;102072.69;5027921;28;20416;-87
2023/03/27 08:40:46;;;;;;;5.70;1.70;;;;;;;6.34;82.97;102069.34;5029346;28;20558;-87
2023/03/27 08:43:16;;;;;;;4.85;1.90;;;;;;;6.44;82.28;102074.19;5022376;28;20040;-88
2023/03/27 08:45:48;;;;;;;4.22;1.77;;;;;;;6.54;83.60;102075.47;5015102;28;20040;-88
2023/03/27 08:48:23;;;;;;;3.67;1.83;;;;;;;6.52;81.82;102071.00;5018280;28;20033;-88
2023/03/27 08:51:18;;;;;;;7.10;1.75;;;;;;;6.48;82.04;102081.34;5016019;28;20026;-88
2023/03/27 08:54:10;;;;;;;5.93;2.15;;;;;;;6.44;82.17;102087.25;5027509;28;20121;-88
2023/03/27 08:56:36;;;;;;;4.80;1.73;;;;;;;6.34;80.51;102092.88;5016808;28;20038;-88
2023/03/27 08:59:02;;;;;;;5.97;1.85;;;;;;;6.22;81.04;102094.91;5021968;28;20522;-88
2023/03/27 09:01:46;;;;;;;3.92;1.67;;;;;;;6.19;81.60;102097.38;5015960;28;20105;-87
2023/03/27 09:04:26;;;;;;;5.20;2.05;;;;;;;6.22;80.72;102106.28;5022717;28;20068;-86
2023/03/27 09:07:08;;;;;;;4.32;2.03;;;;;;;6.40;82.60;102102.72;5025303;28;20048;-87
2023/03/27 09:09:58;;;;;;;6.38;2.20;;;;;;;6.67;81.26;102111.88;5027126;28;20022;-89
2023/03/27 09:12:26;;;;;;;6.03;2.00;;;;;;;6.90;80.72;102106.78;5016297;28;20025;-88
2023/03/27 09:15:03;;;;;;;4.32;1.67;;;;;;;7.03;74.38;102109.97;5017741;28;20042;-88
2023/03/27 09:17:34;;;;;;;5.32;2.58;;;;;;;7.12;74.55;102116.50;5026726;28;20029;-88
2023/03/27 09:20:18;;;;;;;3.20;1.63;;;;;;;6.96;77.47;102146.34;5022873;28;20398;-88
2023/03/27 09:22:51;;;;;;;2.67;1.30;;;;;;;6.37;78.02;102147.97;5017373;28;20034;-88
2023/03/27 09:25:36;;;;;;;0.98;0.95;;;;;;;5.84;80.65;102157.56;5019859;28;20032;-88
2023/03/27 09:28:02;;;;;;;1.58;1.20;;;;;;;5.26;84.65;102173.78;5018910;28;20376;-88
2023/03/27 09:30:32;;;;;;;3.00;1.15;;;;;;;4.88;87.46;102155.22;5018772;28;20092;-87
2023/03/27 09:33:02;;;;;;;1.67;0.90;;;;;;;4.69;89.56;102145.50;5017809;28;20502;-87
2023/03/27 09:35:28;;;;;;;1.08;1.08;;;;;;;4.62;90.27;102159.06;5022769;28;20025;-87
2023/03/27 09:37:58;;;;;;;1.48;0.70;;;;;;;4.60;91.26;102151.13;5018107;28;20501;-87
2023/03/27 09:40:39;;;;;;;2.00;1.17;;;;;;;4.66;94.16;102151.47;5023107;28;20088;-87
2023/03/27 09:43:08;;;;;;;1.92;1.38;;;;;;;4.92;95.35;102159.81;5024428;28;20406;-88
2023/03/27 09:45:38;;;;;;;3.50;1.40;;;;;;;5.12;96.07;102150.44;5023832;28;20021;-88
2023/03/27 09:48:06;;;;;;;2.10;1.10;;;;;;;5.31;96.49;102149.69;5018668;28;20124;-88
2023/03/27 09:50:43;;;;;;;4.47;1.58;;;;;;;5.45;94.81;102152.09;5028359;28;20501;-88
2023/03/27 09:53:21;;;;;;;3.05;1.50;;;;;;;5.67;96.01;102149.78;5023787;28;20099;-88
2023/03/27 09:56:00;;;;;;;3.22;1.60;;;;;;;5.93;95.28;102151.91;5020483;28;20025;-87
2023/03/27 09:58:26;;;;;;;5.97;1.83;;;;;;;6.17;92.93;102153.13;5021742;28;20017;-87
2023/03/27 10:01:29;;;;;;;2.20;1.42;;;;;;;6.44;93.32;102157.94;5019945;28;20033;-87
2023/03/27 10:03:57;;;;;;;4.13;1.65;;;;;;;6.57;88.98;102162.00;5008225;28;20076;-87
2023/03/27 10:06:36;;;;;;;8.18;2.33;;;;;;;6.64;88.21;102158.88;5019949;28;20476;-87
2023/03/27 10:09:18;;;;;;;9.73;2.15;;;;;;;6.78;85.94;102158.59;5021185;28;20438;-87
2023/03/27 10:11:43;;;;;;;7.80;2.25;;;;;;;6.85;84.07;102160.66;5018191;28;20065;-87
2023/03/27 10:14:15;;;;;;;6.57;2.10;;;;;;;6.92;82.87;102157.53;5019148;28;20052;-87
2023/03/27 10:16:41;;;;;;;5.38;1.92;;;;;;;7.21;86.92;102154.41;5023713;28;20033;-87
2023/03/27 10:19:29;;;;;;;4.55;2.03;;;;;;;7.44;84.95;102155.44;5016089;28;20037;-86
2023/03/27 10:21:58;;;;;;;5.15;1.88;;;;;;;7.32;80.79;102159.28;5020410;28;20060;-86
2023/03/27 10:24:35;;;;;;;5.88;1.90;;;;;;;7.11;81.76;102176.69;5018675;28;20034;-86
2023/03/27 10:27:04;;;;;;;5.28;1.95;;;;;;;6.88;82.27;102171.31;5019827;28;20439;-87
2023/03/27 10:29:33;;;;;;;10.20;2.10;;;;;;;6.63;82.25;102164.03;5020849;28;20021;-87
2023/03/27 10:32:00;;;;;;;5.18;2.20;;;;;;;6.46;85.07;102171.97;5017493;28;20029;-87
2023/03/27 10:34:36;;;;;;;5.45;2.03;;;;;;;6.40;86.22;102166.44;5020499;28;20040;-86
2023/03/27 10:37:21;;;;;;;5.35;2.15;;;;;;;6.52;82.94;102167.84;5021554;28;20076;-86
2023/03/27 10:39:47;;;;;;;5.57;1.85;;;;;;;6.78;81.77;102163.84;5018014;28;20026;-87
2023/03/27 10:42:15;;;;;;;5.45;1.80;;;;;;;6.94;73.38;102170.69;5023760;28;20390;-87
2023/03/27 10:44:44;;;;;;;5.53;1.88;;;;;;;6.94;75.96;102189.91;5023718;28;20644;-86
2023/03/27 10:47:22;;;;;;;8.30;1.42;;;;;;;6.83;81.44;102209.47;5023808;28;20027;-87
2023/03/27 10:50:17;;;;;;;2.13;1.25;;;;;;;6.36;80.87;102218.56;5015616;28;20109;-87
2023/03/27 10:52:52;;;;;;;3.75;1.65;;;;;;;5.90;83.99;102225.88;5020257;28;20036;-89
2023/03/27 10:55:31;;;;;;;2.50;1.23;;;;;;;5.49;86.38;102249.06;5020533;28;20076;-87
2023/03/27 10:58:04;;;;;;;3.50;2.00;;;;;;;5.16;88.57;102240.31;5022273;28;20107;-87
2023/03/27 11:00:45;;;;;;;2.17;1.52;;;;;;;4.91;91.29;102238.03;5022451;28;20056;-86
2023/03/27 11:03:15;;;;;;;;;;;;;;;4.89;90.38;102232.75;5015263;28;20026;-87
2023/03/27 11:05:44;;;;;;;4.43;1.73;;;;;;;4.68;93.48;102235.06;5021652;28;19913;-87
2023/03/27 11:08:22;;;;;;;3.60;2.00;;;;;;;4.57;92.78;102242.28;5021896;28;20368;-86
2023/03/27 11:10:49;;;;;;;1.88;1.15;;;;;;;4.47;92.01;102235.66;5016779;28;20026;-86
2023/03/27 11:13:31;;;;;;;5.93;1.67;;;;;;;4.60;94.35;102245.06;5015393;28;20458;-87
2023/03/27 11:16:20;;;;;;;2.72;1.50;;;;;;;4.78;93.83;102232.16;5021758;28;20101;-86
2023/03/27 11:18:53;;;;;;;5.25;1.80;;;;;;;5.09;97.75;102232.94;5023172;28;20033;-86
2023/03/27 11:21:26;;;;;;;3.72;1.83;;;;;;;5.29;91.33;102228.78;5017220;28;20470;-86
2023/03/27 11:23:56;;;;;;;3.38;1.83;;;;;;;5.55;92.75;102224.06;5010989;28;20033;-87
2023/03/27 11:26:28;;;;;;;5.85;1.83;;;;;;;5.81;94.38;102225.41;5021976;28;20565;-87
2023/03/27 11:29:19;;;;;;;4.78;1.80;;;;;;;6.10;92.27;102218.16;5019872;28;20065;-88
2023/03/27 11:31:49;;;;;;;2.58;1.60;;;;;;;6.31;88.03;102218.31;5022942;28;20124;-88
2023/03/27 11:34:38;;;;;;;8.60;3.05;;;;;;;6.52;87.65;102217.59;5026254;28;20497;-88
2023/03/27 11:37:36;;;;;;;6.38;2.20;;;;;;;6.65;88.22;102217.34;5018482;28;20038;-88
2023/03/27 11:40:08;;;;;;;4.13;2.20;;;;;;;6.82;84.43;102220.78;5014611;28;20033;-87
2023/03/27 11:42:41;;;;;;;8.23;2.28;;;;;;;6.94;83.65;102223.94;5019404;28;20021;-87
2023/03/27 11:45:11;;;;;;;6.57;2.70;;;;;;;7.12;85.44;102218.69;5025916;28;20025;-87